createdAt,value
2019-03-21T00:02:38.776Z,27.5
2019-03-21T00:13:04.878Z,18.8
2019-03-21T00:25:36.344Z,24.0
2019-03-21T00:36:21.810Z,18.8
2019-03-21T00:47:11.992Z,15.8
2019-03-21T00:57:49.321Z,16.0
2019-03-21T01:08:35.745Z,18.3
2019-03-21T01:18:49.505Z,12.0
2019-03-21T01:29:05.157Z,14.6
2019-03-21T01:39:18.883Z,14.4
2019-03-21T01:49:33.055Z,13.9
2019-03-21T01:59:47.553Z,12.8
2019-03-21T02:10:33.029Z,18.5
2019-03-21T02:21:26.721Z,18.0
2019-03-21T02:32:34.987Z,17.1
2019-03-21T02:43:11.673Z,13.7
2019-03-21T02:53:44.086Z,17.7
2019-03-21T03:04:30.020Z,20.6
2019-03-21T03:15:22.825Z,20.1
2019-03-21T03:25:28.935Z,15.5
2019-03-21T03:36:15.734Z,18.7
2019-03-21T03:47:01.767Z,20.2
2019-03-21T03:57:49.334Z,24.9
2019-03-21T04:08:14.377Z,13.9
2019-03-21T04:18:28.768Z,15.4
2019-03-21T04:29:14.799Z,18.2
2019-03-21T04:39:46.422Z,16.8
2019-03-21T04:50:00.345Z,13.0
2019-03-21T05:00:11.409Z,14.8
2019-03-21T05:10:29.942Z,14.0
2019-03-21T05:20:43.728Z,15.4
2019-03-21T05:30:55.454Z,14.3
2019-03-21T05:41:40.850Z,22.7
2019-03-21T05:52:05.839Z,14.0
2019-03-21T06:02:20.398Z,17.4
2019-03-21T06:12:45.342Z,17.0
2019-03-21T06:23:31.034Z,22.3
2019-03-21T06:34:37.864Z,23.3
2019-03-21T06:45:47.870Z,20.8
2019-03-21T06:56:41.711Z,21.1
2019-03-21T07:08:03.395Z,20.2
2019-03-21T07:19:27.558Z,19.4
2019-03-21T07:29:41.484Z,14.0
2019-03-21T07:39:55.671Z,17.5
2019-03-21T07:50:41.875Z,21.7
2019-03-21T08:01:28.184Z,20.5
2019-03-21T08:12:19.082Z,20.7
2019-03-21T08:22:40.729Z,14.3
2019-03-21T08:33:03.280Z,16.2
2019-03-21T08:43:21.965Z,15.0
2019-03-21T08:53:35.978Z,17.7
2019-03-21T09:04:22.065Z,14.4
2019-03-21T09:15:08.093Z,17.6
2019-03-21T09:25:20.779Z,12.9
2019-03-21T09:35:34.163Z,13.6
2019-03-21T09:45:48.465Z,14.9
2019-03-21T09:56:01.077Z,15.4
2019-03-21T10:06:12.693Z,15.4
2019-03-21T10:16:57.919Z,17.7
2019-03-21T10:27:43.560Z,13.4
2019-03-21T10:38:07.341Z,11.0
2019-03-21T10:48:18.929Z,15.6
2019-03-21T10:58:38.332Z,11.4
2019-03-21T11:08:49.531Z,10.4
2019-03-21T11:19:07.700Z,8.9
2019-03-21T11:29:21.668Z,8.8
2019-03-21T11:39:34.919Z,8.0
2019-03-21T11:49:46.572Z,7.1
2019-03-21T11:59:57.677Z,7.1
2019-03-21T12:11:26.762Z,8.0
2019-03-21T12:21:38.870Z,7.4
2019-03-21T12:32:07.348Z,7.4
2019-03-21T12:42:21.382Z,6.9
2019-03-21T13:02:46.667Z,7.8
2019-03-21T13:07:13.306Z,6.7
2019-03-21T13:13:46.381Z,6.9
2019-03-21T13:23:59.725Z,9.4
2019-03-21T13:34:17.750Z,7.5
2019-03-21T13:44:31.986Z,7.0
2019-03-21T13:55:20.266Z,8.0
2019-03-21T14:05:41.913Z,10.3
2019-03-21T14:16:47.970Z,9.6
2019-03-21T14:27:38.738Z,10.2
2019-03-21T14:37:52.240Z,8.0
2019-03-21T14:48:12.137Z,8.3
2019-03-21T14:59:07.541Z,10.5
2019-03-21T15:09:30.619Z,8.7
2019-03-21T15:20:17.196Z,8.8
2019-03-21T15:31:06.719Z,8.3
2019-03-21T15:44:04.694Z,9.4
2019-03-21T15:55:48.144Z,9.1
2019-03-21T16:06:34.584Z,7.8
2019-03-21T16:17:48.859Z,10.9
2019-03-21T16:28:43.376Z,10.6
2019-03-21T16:39:31.399Z,8.1
2019-03-21T16:50:21.073Z,9.1
2019-03-21T17:01:15.823Z,11.7
2019-03-21T17:11:37.945Z,7.2
2019-03-21T17:21:54.225Z,8.8
2019-03-21T17:32:44.847Z,10.9
2019-03-21T17:43:31.934Z,9.7
2019-03-21T17:54:20.894Z,11.7
2019-03-21T18:05:33.581Z,10.1
2019-03-21T18:16:25.255Z,9.5
2019-03-21T18:27:18.464Z,10.8
2019-03-21T18:38:27.145Z,12.8
2019-03-21T18:49:20.876Z,12.8
2019-03-21T19:00:22.698Z,14.5
2019-03-21T19:29:43.122Z,16.5
2019-03-21T19:44:45.116Z,21.0
2019-03-21T19:56:34.027Z,20.6
2019-03-21T20:39:35.464Z,18.1
2019-03-21T21:28:32.733Z,20.8
2019-03-21T21:39:33.332Z,20.6
2019-03-21T21:50:55.369Z,17.8
2019-03-21T22:01:59.200Z,24.1
2019-03-21T22:13:24.288Z,20.5
2019-03-21T22:24:11.157Z,23.6
2019-03-21T22:35:16.811Z,13.9
2019-03-21T22:46:25.562Z,24.8
2019-03-21T22:56:51.078Z,18.4
2019-03-21T23:07:38.495Z,20.6
2019-03-21T23:18:02.881Z,15.3
2019-03-21T23:28:59.469Z,24.6
2019-03-21T23:40:45.375Z,22.4
2019-03-21T23:52:06.294Z,26.0
